createdAt,value
2023-02-08T00:01:09.146Z,-7.60
2023-02-08T00:03:37.564Z,-7.62
2023-02-08T00:06:06.038Z,-7.65
2023-02-08T00:08:36.874Z,-7.68
2023-02-08T00:11:05.992Z,-7.71
2023-02-08T00:13:34.195Z,-7.76
2023-02-08T00:16:02.406Z,-7.81
2023-02-08T00:18:31.349Z,-7.82
2023-02-08T00:20:59.872Z,-7.72
2023-02-08T00:23:27.837Z,-7.63
2023-02-08T00:25:55.722Z,-7.60
2023-02-08T00:28:23.969Z,-7.64
2023-02-08T00:30:53.640Z,-7.69
2023-02-08T00:33:22.092Z,-7.73
2023-02-08T00:35:50.155Z,-7.77
2023-02-08T00:38:21.240Z,-7.82
2023-02-08T00:40:50.250Z,-7.88
2023-02-08T00:43:18.874Z,-7.93
2023-02-08T00:45:47.149Z,-7.86
2023-02-08T00:48:15.219Z,-7.76
2023-02-08T00:50:45.281Z,-7.71
2023-02-08T00:53:13.314Z,-7.74
2023-02-08T00:55:42.579Z,-7.79
2023-02-08T00:58:11.634Z,-7.85
2023-02-08T01:00:40.414Z,-7.92
2023-02-08T01:03:08.767Z,-8.02
2023-02-08T01:05:42.038Z,-8.12
2023-02-08T01:08:10.303Z,-8.16
2023-02-08T01:10:38.709Z,-8.08
2023-02-08T01:13:06.992Z,-8.01
2023-02-08T01:15:35.280Z,-7.99
2023-02-08T01:18:03.752Z,-8.02
2023-02-08T01:20:34.171Z,-8.04
2023-02-08T01:23:03.083Z,-8.06
2023-02-08T01:25:33.213Z,-8.09
2023-02-08T01:28:01.362Z,-8.13
2023-02-08T01:30:29.744Z,-8.18
2023-02-08T01:32:57.734Z,-8.15
2023-02-08T01:35:29.153Z,-8.06
2023-02-08T01:37:59.621Z,-8.01
2023-02-08T01:40:27.863Z,-8.01
2023-02-08T01:42:56.119Z,-8.05
2023-02-08T01:45:26.436Z,-8.11
2023-02-08T01:48:12.409Z,-8.19
2023-02-08T01:50:48.961Z,-8.33
2023-02-08T01:53:17.087Z,-8.45
2023-02-08T01:55:49.092Z,-8.49
2023-02-08T01:58:18.048Z,-8.42
2023-02-08T02:00:46.780Z,-8.38
2023-02-08T02:03:15.031Z,-8.37
2023-02-08T02:05:50.314Z,-8.40
2023-02-08T02:08:18.744Z,-8.44
2023-02-08T02:10:49.589Z,-8.51
2023-02-08T02:13:20.703Z,-8.58
2023-02-08T02:15:49.087Z,-8.65
2023-02-08T02:18:23.372Z,-8.67
2023-02-08T02:21:13.507Z,-8.58
2023-02-08T02:24:20.485Z,-8.49
2023-02-08T02:27:06.993Z,-8.46
2023-02-08T02:29:50.428Z,-8.48
2023-02-08T02:32:24.572Z,-8.51
2023-02-08T02:35:01.754Z,-8.55
2023-02-08T02:37:29.878Z,-8.60
2023-02-08T02:40:10.449Z,-8.66
2023-02-08T02:43:26.139Z,-8.63
2023-02-08T02:46:05.136Z,-8.45
2023-02-08T02:48:59.484Z,-8.39
2023-02-08T02:51:33.436Z,-8.49
2023-02-08T02:54:14.748Z,-8.59
2023-02-08T02:56:46.417Z,-8.73
2023-02-08T02:59:16.003Z,-8.83
2023-02-08T03:01:45.233Z,-8.91
2023-02-08T03:04:14.977Z,-8.93
2023-02-08T03:07:04.083Z,-8.79
2023-02-08T03:09:35.432Z,-8.67
2023-02-08T03:12:15.385Z,-8.63
2023-02-08T03:15:22.336Z,-8.67
2023-02-08T03:18:00.941Z,-8.70
2023-02-08T03:20:40.570Z,-8.72
2023-02-08T03:23:19.696Z,-8.77
2023-02-08T03:25:51.357Z,-8.84
2023-02-08T03:28:25.756Z,-8.78
2023-02-08T03:31:01.924Z,-8.66
2023-02-08T03:33:37.822Z,-8.62
2023-02-08T03:36:09.098Z,-8.69
2023-02-08T03:38:40.779Z,-8.76
2023-02-08T03:41:12.194Z,-8.80
2023-02-08T03:43:47.039Z,-8.82
2023-02-08T03:46:19.131Z,-8.86
2023-02-08T03:48:49.743Z,-8.87
2023-02-08T03:51:18.018Z,-8.75
2023-02-08T03:53:46.059Z,-8.67
2023-02-08T03:56:21.792Z,-8.64
2023-02-08T03:58:52.455Z,-8.70
2023-02-08T04:01:24.699Z,-8.74
2023-02-08T04:03:54.074Z,-8.78
2023-02-08T04:06:22.014Z,-8.81
2023-02-08T04:08:50.720Z,-8.87
2023-02-08T04:11:20.000Z,-8.88
2023-02-08T04:13:48.440Z,-8.77
2023-02-08T04:16:16.455Z,-8.70
2023-02-08T04:18:44.465Z,-8.69
2023-02-08T04:21:12.684Z,-8.74
2023-02-08T04:23:41.365Z,-8.82
2023-02-08T04:26:09.739Z,-8.89
2023-02-08T04:28:38.457Z,-8.95
2023-02-08T04:31:06.809Z,-8.99
2023-02-08T04:33:36.832Z,-8.98
2023-02-08T04:36:05.594Z,-8.87
2023-02-08T04:38:34.209Z,-8.79
2023-02-08T04:41:02.527Z,-8.76
2023-02-08T04:43:30.497Z,-8.79
2023-02-08T04:45:58.568Z,-8.83
2023-02-08T04:48:26.588Z,-8.91
2023-02-08T04:50:58.145Z,-9.00
2023-02-08T04:53:26.199Z,-9.09
2023-02-08T04:55:54.286Z,-9.05
2023-02-08T04:58:22.671Z,-8.97
2023-02-08T05:00:50.829Z,-8.90
2023-02-08T05:03:18.917Z,-8.92
2023-02-08T05:05:47.120Z,-9.00
2023-02-08T05:08:15.352Z,-9.05
2023-02-08T05:10:46.524Z,-9.08
2023-02-08T05:13:14.876Z,-9.11
2023-02-08T05:15:43.817Z,-9.15
2023-02-08T05:18:13.339Z,-9.07
2023-02-08T05:20:41.548Z,-8.96
2023-02-08T05:23:09.853Z,-8.90
2023-02-08T05:25:39.431Z,-8.92
2023-02-08T05:28:07.644Z,-8.95
2023-02-08T05:30:36.595Z,-8.98
2023-02-08T05:33:04.495Z,-9.02
2023-02-08T05:35:32.657Z,-9.08
2023-02-08T05:38:01.124Z,-9.13
2023-02-08T05:40:29.652Z,-9.04
2023-02-08T05:42:57.664Z,-8.92
2023-02-08T05:45:25.712Z,-8.87
2023-02-08T05:47:53.977Z,-8.91
2023-02-08T05:50:22.296Z,-8.94
2023-02-08T05:52:52.004Z,-8.94
2023-02-08T05:55:19.983Z,-8.95
2023-02-08T05:57:47.935Z,-8.99
2023-02-08T06:00:17.186Z,-9.02
2023-02-08T06:02:45.229Z,-8.89
2023-02-08T06:05:13.680Z,-8.73
2023-02-08T06:07:42.072Z,-8.66
2023-02-08T06:10:11.411Z,-8.66
2023-02-08T06:12:40.491Z,-8.66
2023-02-08T06:15:09.940Z,-8.63
2023-02-08T06:17:38.894Z,-8.59
2023-02-08T06:20:07.651Z,-8.58
2023-02-08T06:22:35.628Z,-8.58
2023-02-08T06:25:03.863Z,-8.44
2023-02-08T06:27:32.316Z,-8.28
2023-02-08T06:30:00.343Z,-8.17
2023-02-08T06:32:28.780Z,-8.13
2023-02-08T06:34:57.112Z,-8.09
2023-02-08T06:37:25.101Z,-8.03
2023-02-08T06:39:53.157Z,-8.03
2023-02-08T06:42:21.335Z,-8.05
2023-02-08T06:44:55.176Z,-8.08
2023-02-08T06:50:16.649Z,-7.92
2023-02-08T06:52:44.896Z,-7.89
2023-02-08T06:55:12.800Z,-7.88
2023-02-08T06:57:42.454Z,-7.87
2023-02-08T07:00:12.118Z,-7.88
2023-02-08T07:02:40.339Z,-7.85
2023-02-08T07:05:08.513Z,-7.71
2023-02-08T07:07:37.014Z,-7.51
2023-02-08T07:10:05.230Z,-7.31
2023-02-08T07:12:36.816Z,-7.21
2023-02-08T07:15:04.840Z,-7.14
2023-02-08T07:17:34.094Z,-7.03
2023-02-08T07:20:01.979Z,-6.92
2023-02-08T07:22:30.198Z,-6.83
2023-02-08T07:24:59.456Z,-6.78
2023-02-08T07:27:27.276Z,-6.70
2023-02-08T07:29:55.425Z,-6.67
2023-02-08T07:32:23.334Z,-6.63
2023-02-08T07:34:51.290Z,-6.66
2023-02-08T07:37:19.158Z,-6.69
2023-02-08T07:39:47.209Z,-6.69
2023-02-08T07:42:15.175Z,-6.53
2023-02-08T07:44:51.890Z,-6.32
2023-02-08T07:47:19.820Z,-6.10
2023-02-08T07:49:47.862Z,-5.94
2023-02-08T07:52:16.169Z,-5.78
2023-02-08T07:54:44.240Z,-5.61
2023-02-08T07:57:12.154Z,-5.41
2023-02-08T07:59:40.220Z,-5.20
2023-02-08T08:02:08.899Z,-5.04
2023-02-08T08:04:37.533Z,-4.90
2023-02-08T08:07:06.285Z,-4.76
2023-02-08T08:09:35.029Z,-4.61
2023-02-08T08:12:03.270Z,-4.50
2023-02-08T08:14:31.532Z,-4.46
2023-02-08T08:16:59.437Z,-4.39
2023-02-08T08:19:28.780Z,-4.29
2023-02-08T08:21:57.066Z,-4.17
2023-02-08T08:24:25.153Z,-4.04
2023-02-08T08:26:53.940Z,-3.95
2023-02-08T08:29:21.901Z,-3.88
2023-02-08T08:31:49.841Z,-3.72
2023-02-08T08:34:17.805Z,-3.51
2023-02-08T08:36:46.116Z,-3.28
2023-02-08T08:39:13.977Z,-3.05
2023-02-08T08:41:41.930Z,-2.82
2023-02-08T08:44:09.928Z,-2.64
2023-02-08T08:46:38.213Z,-2.43
2023-02-08T08:49:06.549Z,-2.21
2023-02-08T08:51:35.610Z,-1.99
2023-02-08T08:54:04.796Z,-1.77
2023-02-08T08:56:32.872Z,-1.58
2023-02-08T08:59:01.301Z,-1.35
2023-02-08T09:01:29.556Z,-1.13
2023-02-08T09:03:57.504Z,-0.86
2023-02-08T09:06:25.657Z,-0.57
2023-02-08T09:08:53.752Z,-0.34
2023-02-08T09:11:21.670Z,-0.10
2023-02-08T09:13:52.999Z,0.16
2023-02-08T09:16:24.868Z,0.41
2023-02-08T09:18:52.996Z,0.70
2023-02-08T09:21:22.568Z,1.04
2023-02-08T09:23:50.627Z,1.43
2023-02-08T09:26:19.469Z,1.93
2023-02-08T09:28:47.470Z,2.49
2023-02-08T09:31:19.632Z,3.09
2023-02-08T09:33:48.813Z,3.77
2023-02-08T09:36:17.176Z,4.37
2023-02-08T09:38:45.374Z,5.11
2023-02-08T09:41:38.751Z,5.83
2023-02-08T09:44:28.625Z,6.61
2023-02-08T09:47:03.633Z,7.43
2023-02-08T09:49:34.517Z,8.07
2023-02-08T09:52:04.491Z,8.65
2023-02-08T09:54:38.307Z,9.39
2023-02-08T09:57:13.777Z,10.14
2023-02-08T09:59:47.444Z,10.64
2023-02-08T10:02:32.576Z,11.10
2023-02-08T10:05:03.938Z,11.69
2023-02-08T10:07:33.091Z,12.23
2023-02-08T10:10:12.128Z,12.58
2023-02-08T10:12:48.001Z,12.97
2023-02-08T10:15:36.679Z,13.40
2023-02-08T10:18:26.396Z,13.80
2023-02-08T10:21:31.525Z,14.06
2023-02-08T10:24:11.898Z,14.12
2023-02-08T10:26:53.329Z,14.03
2023-02-08T10:29:31.704Z,14.26
2023-02-08T10:32:22.697Z,14.57
2023-02-08T10:35:03.351Z,14.87
2023-02-08T10:37:36.028Z,15.22
2023-02-08T10:40:44.154Z,15.59
2023-02-08T10:43:35.621Z,15.91
2023-02-08T10:46:26.623Z,16.12
2023-02-08T10:49:07.663Z,16.29
2023-02-08T10:51:36.381Z,16.29
2023-02-08T10:54:04.830Z,16.51
2023-02-08T10:56:52.988Z,16.75
2023-02-08T10:59:26.904Z,16.80
2023-02-08T11:01:54.976Z,16.95
2023-02-08T11:04:22.869Z,17.14
2023-02-08T11:06:51.923Z,17.19
2023-02-08T11:09:23.922Z,17.12
2023-02-08T11:11:56.432Z,17.25
2023-02-08T11:14:46.277Z,17.22
2023-02-08T11:17:27.730Z,17.32
2023-02-08T11:19:56.111Z,17.45
2023-02-08T11:22:26.824Z,17.57
2023-02-08T11:24:57.763Z,17.65
2023-02-08T11:27:28.686Z,17.56
2023-02-08T11:30:15.845Z,17.59
2023-02-08T11:32:48.672Z,17.46
2023-02-08T11:35:26.009Z,17.38
2023-02-08T11:37:55.477Z,17.50
2023-02-08T11:40:29.790Z,17.61
2023-02-08T11:42:57.877Z,17.75
2023-02-08T11:45:31.214Z,17.96
2023-02-08T11:48:01.706Z,18.10
2023-02-08T11:50:34.936Z,18.17
2023-02-08T11:53:06.790Z,18.21
2023-02-08T11:55:35.257Z,18.18
2023-02-08T11:58:04.754Z,18.08
2023-02-08T12:00:36.451Z,18.05
2023-02-08T12:03:15.085Z,18.12
2023-02-08T12:05:54.248Z,18.16
2023-02-08T12:09:00.680Z,18.29
2023-02-08T12:11:49.131Z,18.25
2023-02-08T12:14:42.375Z,18.26
2023-02-08T12:17:55.677Z,18.35
2023-02-08T12:20:45.449Z,18.40
2023-02-08T12:23:46.592Z,18.35
2023-02-08T12:26:25.895Z,18.57
2023-02-08T12:29:06.871Z,18.72
2023-02-08T12:31:42.884Z,18.90
2023-02-08T12:34:22.750Z,18.87
2023-02-08T12:37:22.088Z,18.67
2023-02-08T12:40:18.687Z,18.77
2023-02-08T12:43:15.432Z,19.12
2023-02-08T12:45:59.112Z,19.41
2023-02-08T12:48:35.581Z,19.46
2023-02-08T12:51:28.740Z,19.63
2023-02-08T12:54:30.902Z,20.01
2023-02-08T12:57:02.440Z,20.14
2023-02-08T12:59:56.544Z,20.23
2023-02-08T13:02:57.473Z,19.75
2023-02-08T13:05:28.745Z,19.56
2023-02-08T13:08:32.809Z,19.82
2023-02-08T13:11:18.857Z,20.28
2023-02-08T13:14:13.022Z,20.45
2023-02-08T13:16:44.172Z,20.11
2023-02-08T13:19:24.859Z,19.22
2023-02-08T13:21:53.639Z,17.33
2023-02-08T13:24:38.761Z,15.48
2023-02-08T13:27:08.250Z,13.70
2023-02-08T13:29:36.396Z,12.21
2023-02-08T13:32:29.798Z,10.84
2023-02-08T13:35:02.898Z,9.45
2023-02-08T13:37:32.426Z,8.30
2023-02-08T13:40:12.876Z,7.31
2023-02-08T13:42:43.169Z,6.43
2023-02-08T13:45:25.712Z,5.76
2023-02-08T13:48:02.471Z,5.72
2023-02-08T13:50:44.848Z,6.27
2023-02-08T13:53:14.880Z,7.14
2023-02-08T13:55:43.058Z,7.96
2023-02-08T13:58:14.137Z,8.80
2023-02-08T14:00:54.990Z,9.45
2023-02-08T14:03:27.898Z,9.48
2023-02-08T14:06:22.575Z,8.84
2023-02-08T14:08:57.510Z,7.94
2023-02-08T14:11:57.334Z,7.10
2023-02-08T14:14:26.738Z,6.10
2023-02-08T14:17:04.167Z,5.34
2023-02-08T14:19:33.890Z,4.59
2023-02-08T14:22:07.089Z,4.01
2023-02-08T14:24:49.829Z,3.41
2023-02-08T14:27:40.964Z,2.84
2023-02-08T14:30:17.929Z,2.30
2023-02-08T14:33:04.939Z,1.82
2023-02-08T14:35:34.332Z,1.36
2023-02-08T14:38:32.852Z,0.95
2023-02-08T14:41:02.029Z,0.56
2023-02-08T14:43:41.177Z,0.25
2023-02-08T14:46:54.976Z,-0.02
2023-02-08T14:49:23.254Z,-0.29
2023-02-08T14:51:56.873Z,-0.49
2023-02-08T14:54:33.032Z,-0.69
2023-02-08T14:57:04.156Z,-0.90
2023-02-08T14:59:32.706Z,-1.16
2023-02-08T15:02:11.392Z,-1.35
2023-02-08T15:04:44.514Z,-1.54
2023-02-08T15:07:16.578Z,-1.69
2023-02-08T15:09:45.537Z,-1.83
2023-02-08T15:12:30.450Z,-2.02
2023-02-08T15:15:01.448Z,-2.24
2023-02-08T15:17:34.122Z,-2.37
2023-02-08T15:20:06.070Z,-2.47
2023-02-08T15:22:40.344Z,-2.56
2023-02-08T15:25:35.575Z,-2.65
2023-02-08T15:28:22.302Z,-2.76
2023-02-08T15:31:09.598Z,-2.89
2023-02-08T15:33:43.705Z,-3.04
2023-02-08T15:36:21.203Z,-3.16
2023-02-08T15:38:49.337Z,-3.29
2023-02-08T15:41:31.772Z,-3.39
2023-02-08T15:44:20.595Z,-3.47
2023-02-08T15:46:50.022Z,-3.53
2023-02-08T15:49:22.200Z,-3.60
2023-02-08T15:51:51.083Z,-3.65
2023-02-08T15:54:19.116Z,-3.69
2023-02-08T15:57:17.781Z,-3.74
2023-02-08T15:59:46.063Z,-3.81
2023-02-08T16:02:21.101Z,-3.86
2023-02-08T16:04:49.132Z,-3.94
2023-02-08T16:07:35.154Z,-4.01
2023-02-08T16:10:04.603Z,-4.08
2023-02-08T16:12:33.226Z,-4.15
2023-02-08T16:15:02.854Z,-4.22
2023-02-08T16:17:36.076Z,-4.32
2023-02-08T16:20:31.944Z,-4.43
2023-02-08T16:23:03.884Z,-4.53
2023-02-08T16:25:49.243Z,-4.63
2023-02-08T16:28:35.409Z,-4.73
2023-02-08T16:31:04.410Z,-4.81
2023-02-08T16:33:33.038Z,-4.88
2023-02-08T16:36:03.776Z,-4.98
2023-02-08T16:38:36.612Z,-5.02
2023-02-08T16:41:12.299Z,-5.10
2023-02-08T16:43:44.582Z,-5.17
2023-02-08T16:46:19.853Z,-5.26
2023-02-08T16:48:51.527Z,-5.38
2023-02-08T16:51:22.217Z,-5.44
2023-02-08T16:53:51.942Z,-5.48
2023-02-08T16:56:20.128Z,-5.51
2023-02-08T16:58:48.355Z,-5.52
2023-02-08T17:01:45.245Z,-5.52
2023-02-08T17:04:19.124Z,-5.34
2023-02-08T17:06:47.043Z,-5.23
2023-02-08T17:09:15.065Z,-5.27
2023-02-08T17:11:43.008Z,-5.33
2023-02-08T17:14:11.205Z,-5.39
2023-02-08T17:16:40.032Z,-5.44
2023-02-08T17:19:10.866Z,-5.52
2023-02-08T17:21:39.075Z,-5.62
2023-02-08T17:24:06.915Z,-5.70
2023-02-08T17:26:38.919Z,-5.78
2023-02-08T17:29:07.827Z,-5.85
2023-02-08T17:31:36.079Z,-5.90
2023-02-08T17:34:06.915Z,-5.94
2023-02-08T17:36:36.535Z,-5.95
2023-02-08T17:39:05.745Z,-6.00
2023-02-08T17:41:34.563Z,-6.06
2023-02-08T17:44:02.692Z,-6.13
2023-02-08T17:46:31.124Z,-6.20
2023-02-08T17:49:01.704Z,-6.25
2023-02-08T17:51:33.008Z,-6.29
2023-02-08T17:54:05.066Z,-6.30
2023-02-08T17:56:36.726Z,-6.18
2023-02-08T17:59:05.642Z,-6.00
2023-02-08T18:01:34.095Z,-5.91
2023-02-08T18:04:02.656Z,-5.95
2023-02-08T18:06:31.328Z,-6.00
2023-02-08T18:08:59.183Z,-6.04
2023-02-08T18:11:27.272Z,-6.07
2023-02-08T18:13:55.812Z,-6.07
2023-02-08T18:16:26.484Z,-6.07
2023-02-08T18:18:56.497Z,-6.12
2023-02-08T18:21:26.179Z,-6.18
2023-02-08T18:23:55.592Z,-6.23
2023-02-08T18:26:24.230Z,-6.29
2023-02-08T18:28:52.930Z,-6.35
2023-02-08T18:31:21.239Z,-6.40
2023-02-08T18:33:49.962Z,-6.45
2023-02-08T18:36:19.110Z,-6.50
2023-02-08T18:38:47.749Z,-6.55
2023-02-08T18:41:23.905Z,-6.49
2023-02-08T18:43:52.229Z,-6.35
2023-02-08T18:46:21.484Z,-6.28
2023-02-08T18:48:50.831Z,-6.29
2023-02-08T18:51:19.941Z,-6.35
2023-02-08T18:53:50.920Z,-6.38
2023-02-08T18:56:24.275Z,-6.40
2023-02-08T18:58:53.861Z,-6.42
2023-02-08T19:01:23.156Z,-6.45
2023-02-08T19:03:52.195Z,-6.46
2023-02-08T19:08:25.316Z,-6.51
2023-02-08T19:10:53.432Z,-6.56
2023-02-08T19:13:21.396Z,-6.58
2023-02-08T19:15:49.928Z,-6.60
2023-02-08T19:18:17.911Z,-6.65
2023-02-08T19:20:45.809Z,-6.69
2023-02-08T19:23:13.692Z,-6.68
2023-02-08T19:25:42.306Z,-6.55
2023-02-08T19:28:10.861Z,-6.43
2023-02-08T19:30:40.188Z,-6.39
2023-02-08T19:33:08.743Z,-6.39
2023-02-08T19:35:38.568Z,-6.38
2023-02-08T19:38:06.701Z,-6.38
2023-02-08T19:40:35.555Z,-6.39
2023-02-08T19:43:04.299Z,-6.37
2023-02-08T19:45:32.539Z,-6.37
2023-02-08T19:48:00.445Z,-6.37
2023-02-08T19:50:28.733Z,-6.38
2023-02-08T19:52:57.334Z,-6.38
2023-02-08T19:55:26.002Z,-6.39
2023-02-08T19:57:54.374Z,-6.39
2023-02-08T20:00:24.282Z,-6.39
2023-02-08T20:02:52.855Z,-6.39
2023-02-08T20:05:20.864Z,-6.40
2023-02-08T20:07:49.561Z,-6.41
2023-02-08T20:10:18.277Z,-6.34
2023-02-08T20:12:46.394Z,-6.19
2023-02-08T20:15:16.092Z,-6.07
2023-02-08T20:17:46.119Z,-6.05
2023-02-08T20:20:14.709Z,-6.06
2023-02-08T20:22:43.114Z,-6.07
2023-02-08T20:25:10.996Z,-6.09
2023-02-08T20:27:39.225Z,-6.13
2023-02-08T20:30:07.596Z,-6.19
2023-02-08T20:32:35.887Z,-6.26
2023-02-08T20:35:04.619Z,-6.31
2023-02-08T20:37:33.757Z,-6.34
2023-02-08T20:40:01.897Z,-6.37
2023-02-08T20:42:30.339Z,-6.39
2023-02-08T20:44:58.479Z,-6.42
2023-02-08T20:47:28.536Z,-6.46
2023-02-08T20:49:59.615Z,-6.50
2023-02-08T20:52:29.583Z,-6.39
2023-02-08T20:54:57.686Z,-6.27
2023-02-08T20:57:25.767Z,-6.20
2023-02-08T20:59:53.979Z,-6.22
2023-02-08T21:02:22.576Z,-6.25
2023-02-08T21:04:50.500Z,-6.28
2023-02-08T21:07:18.514Z,-6.30
2023-02-08T21:09:47.081Z,-6.34
2023-02-08T21:12:14.979Z,-6.39
2023-02-08T21:14:44.704Z,-6.43
2023-02-08T21:17:17.788Z,-6.46
2023-02-08T21:19:47.816Z,-6.52
2023-02-08T21:22:17.196Z,-6.57
2023-02-08T21:24:45.146Z,-6.61
2023-02-08T21:27:13.526Z,-6.61
2023-02-08T21:29:42.198Z,-6.46
2023-02-08T21:32:10.323Z,-6.34
2023-02-08T21:34:38.280Z,-6.28
2023-02-08T21:37:06.209Z,-6.29
2023-02-08T21:39:34.694Z,-6.29
2023-02-08T21:42:03.145Z,-6.30
2023-02-08T21:44:35.249Z,-6.33
2023-02-08T21:47:03.275Z,-6.37
2023-02-08T21:49:50.426Z,-6.42
2023-02-08T21:52:37.008Z,-6.48
2023-02-08T21:55:06.019Z,-6.56
2023-02-08T21:57:39.944Z,-6.62
2023-02-08T22:00:10.390Z,-6.69
2023-02-08T22:02:41.338Z,-6.74
2023-02-08T22:05:28.529Z,-6.75
2023-02-08T22:08:00.048Z,-6.61
2023-02-08T22:10:30.372Z,-6.50
2023-02-08T22:12:58.972Z,-6.44
2023-02-08T22:15:29.231Z,-6.46
2023-02-08T22:17:59.089Z,-6.49
2023-02-08T22:20:28.101Z,-6.53
2023-02-08T22:22:56.418Z,-6.56
2023-02-08T22:25:24.818Z,-6.60
2023-02-08T22:27:53.355Z,-6.64
2023-02-08T22:30:23.837Z,-6.68
2023-02-08T22:32:53.397Z,-6.72
2023-02-08T22:35:22.755Z,-6.75
2023-02-08T22:37:50.974Z,-6.79
2023-02-08T22:40:19.251Z,-6.81
2023-02-08T22:42:47.585Z,-6.70
2023-02-08T22:45:15.480Z,-6.58
2023-02-08T22:47:44.687Z,-6.54
2023-02-08T22:50:14.375Z,-6.57
2023-02-08T22:52:42.445Z,-6.59
2023-02-08T22:55:12.381Z,-6.61
2023-02-08T22:57:43.630Z,-6.63
2023-02-08T23:00:14.394Z,-6.67
2023-02-08T23:02:43.125Z,-6.73
2023-02-08T23:05:11.319Z,-6.79
2023-02-08T23:07:40.347Z,-6.84
2023-02-08T23:10:09.643Z,-6.90
2023-02-08T23:12:38.163Z,-6.92
2023-02-08T23:15:06.749Z,-6.80
2023-02-08T23:17:36.528Z,-6.68
2023-02-08T23:20:04.625Z,-6.61
2023-02-08T23:22:36.691Z,-6.63
2023-02-08T23:25:05.152Z,-6.69
2023-02-08T23:27:33.911Z,-6.73
2023-02-08T23:30:02.082Z,-6.78
2023-02-08T23:32:30.340Z,-6.82
2023-02-08T23:34:58.410Z,-6.87
2023-02-08T23:37:26.994Z,-6.94
2023-02-08T23:39:55.278Z,-7.02
2023-02-08T23:42:26.881Z,-7.07
2023-02-08T23:44:56.132Z,-7.00
2023-02-08T23:47:24.518Z,-6.89
2023-02-08T23:49:52.700Z,-6.82
2023-02-08T23:52:21.062Z,-6.84
2023-02-08T23:54:49.560Z,-6.88
2023-02-08T23:57:17.857Z,-6.91
2023-02-08T23:59:45.979Z,-6.95
